createdAt,value
2019-03-21T00:00:03.202Z,0.16
2019-03-21T00:01:03.226Z,0.09
2019-03-21T00:02:03.205Z,0.14
2019-03-21T00:03:03.299Z,0.16
2019-03-21T00:04:03.205Z,0.13
2019-03-21T00:05:03.279Z,0.15
2019-03-21T00:06:03.271Z,0.11
2019-03-21T00:07:03.257Z,0.1
2019-03-21T00:08:03.306Z,0.01
2019-03-21T00:09:03.292Z,0.07
2019-03-21T00:10:03.336Z,0.07
2019-03-21T00:11:03.236Z,0.09
2019-03-21T00:12:03.197Z,0.09
2019-03-21T00:13:03.313Z,0.1
2019-03-21T00:14:07.578Z,0.08
2019-03-21T00:15:03.274Z,0.04
2019-03-21T00:16:03.206Z,0.04
2019-03-21T00:17:03.213Z,0.06
2019-03-21T00:18:03.192Z,0.01
2019-03-21T00:19:03.207Z,-0.06
2019-03-21T00:20:03.192Z,-0.02
2019-03-21T00:21:03.170Z,-0.09
2019-03-21T00:22:03.159Z,-0.07
2019-03-21T00:23:03.183Z,-0.14
2019-03-21T00:24:03.241Z,-0.13
2019-03-21T00:25:03.191Z,-0.15
2019-03-21T00:26:03.148Z,-0.16
2019-03-21T00:27:03.177Z,-0.12
2019-03-21T00:28:03.157Z,-0.14
2019-03-21T00:29:03.219Z,-0.17
2019-03-21T00:30:03.154Z,-0.02
2019-03-21T00:31:03.238Z,-0.14
2019-03-21T00:32:03.404Z,-0.14
2019-03-21T00:33:03.194Z,-0.11
2019-03-21T00:34:03.266Z,-0.05
2019-03-21T00:35:03.203Z,-0.07
2019-03-21T00:36:03.210Z,-0.09
2019-03-21T00:37:03.186Z,-0.04
2019-03-21T00:38:03.206Z,-0.07
2019-03-21T00:39:03.247Z,-0.09
2019-03-21T00:40:03.188Z,-0.08
2019-03-21T00:41:03.247Z,-0.07
2019-03-21T00:42:03.155Z,-0.11
2019-03-21T00:43:03.260Z,-0.11
2019-03-21T00:44:03.135Z,-0.09
2019-03-21T00:45:03.145Z,-0.19
2019-03-21T00:46:03.152Z,-0.17
2019-03-21T00:47:03.148Z,-0.16
2019-03-21T00:48:03.172Z,-0.18
2019-03-21T00:49:03.298Z,-0.1
2019-03-21T00:50:03.124Z,-0.12
2019-03-21T00:51:03.142Z,-0.15
2019-03-21T00:52:03.126Z,-0.18
2019-03-21T00:53:03.240Z,-0.17
2019-03-21T00:54:03.237Z,-0.19
2019-03-21T00:55:03.137Z,-0.2
2019-03-21T00:56:03.203Z,-0.26
2019-03-21T00:57:03.134Z,-0.24
2019-03-21T00:58:03.134Z,-0.26
2019-03-21T00:59:03.108Z,-0.24
2019-03-21T01:00:03.142Z,-0.23
2019-03-21T01:01:03.205Z,-0.22
2019-03-21T01:02:03.092Z,-0.22
2019-03-21T01:03:04.129Z,-0.23
2019-03-21T01:04:03.141Z,-0.24
2019-03-21T01:05:03.162Z,-0.29
2019-03-21T01:06:03.164Z,-0.27
2019-03-21T01:07:03.141Z,-0.26
2019-03-21T01:08:03.103Z,-0.26
2019-03-21T01:09:03.108Z,-0.31
2019-03-21T01:10:03.130Z,-0.25
2019-03-21T01:11:03.112Z,-0.28
2019-03-21T01:12:03.146Z,-0.41
2019-03-21T01:13:03.162Z,-0.45
2019-03-21T01:14:03.098Z,-0.37
2019-03-21T01:15:03.201Z,-0.4
2019-03-21T01:16:03.088Z,-0.43
2019-03-21T01:17:03.069Z,-0.47
2019-03-21T01:18:03.105Z,-0.44
2019-03-21T01:19:03.108Z,-0.43
2019-03-21T01:20:03.395Z,-0.44
2019-03-21T01:21:03.103Z,-0.42
2019-03-21T01:22:03.124Z,-0.45
2019-03-21T01:23:03.092Z,-0.46
2019-03-21T01:24:03.093Z,-0.47
2019-03-21T01:25:03.105Z,-0.41
2019-03-21T01:26:03.067Z,-0.4
2019-03-21T01:27:03.057Z,-0.36
2019-03-21T01:28:03.084Z,-0.4
2019-03-21T01:29:03.102Z,-0.48
2019-03-21T01:30:03.074Z,-0.46
2019-03-21T01:31:03.069Z,-0.5
2019-03-21T01:32:03.071Z,-0.53
2019-03-21T01:33:03.072Z,-0.59
2019-03-21T01:34:03.260Z,-0.63
2019-03-21T01:35:03.062Z,-0.75
2019-03-21T01:36:03.262Z,-0.74
2019-03-21T01:37:03.337Z,-0.76
2019-03-21T01:38:03.061Z,-0.74
2019-03-21T01:39:03.097Z,-0.76
2019-03-21T01:40:03.050Z,-0.83
2019-03-21T01:41:03.034Z,-0.76
2019-03-21T01:42:03.092Z,-0.83
2019-03-21T01:43:03.028Z,-0.82
2019-03-21T01:44:03.039Z,-0.88
2019-03-21T01:45:03.065Z,-0.85
2019-03-21T01:46:03.123Z,-0.97
2019-03-21T01:47:03.033Z,-0.9
2019-03-21T01:48:03.010Z,-0.99
2019-03-21T01:49:03.037Z,-1.04
2019-03-21T01:50:03.025Z,-1.11
2019-03-21T01:51:03.050Z,-1.09
2019-03-21T01:52:03.042Z,-1.08
2019-03-21T01:53:03.067Z,-1.1
2019-03-21T01:54:03.014Z,-1.12
2019-03-21T01:55:03.021Z,-1.17
2019-03-21T01:56:03.077Z,-1.16
2019-03-21T01:57:03.032Z,-1.18
2019-03-21T01:58:03.112Z,-1.1
2019-03-21T01:59:03.235Z,-1.23
2019-03-21T02:00:03.093Z,-1.16
2019-03-21T02:01:03.046Z,-1.16
2019-03-21T02:02:03.023Z,-1.19
2019-03-21T02:03:03.071Z,-1.23
2019-03-21T02:04:03.002Z,-1.24
2019-03-21T02:05:03.043Z,-1.2
2019-03-21T02:06:03.011Z,-1.19
2019-03-21T02:07:03.003Z,-1.17
2019-03-21T02:08:03.022Z,-1.13
2019-03-21T02:09:03.036Z,-1.12
2019-03-21T02:10:03.032Z,-1.17
2019-03-21T02:11:03.030Z,-1.11
2019-03-21T02:12:03.053Z,-1.04
2019-03-21T02:13:03.039Z,-1.08
2019-03-21T02:14:02.996Z,-1.03
2019-03-21T02:15:03.005Z,-1.11
2019-03-21T02:16:03.078Z,-1.07
2019-03-21T02:17:03.039Z,-1.07
2019-03-21T02:18:03.004Z,-1.01
2019-03-21T02:19:03.007Z,-1.02
2019-03-21T02:20:03.216Z,-0.98
2019-03-21T02:21:03.089Z,-0.98
2019-03-21T02:22:02.994Z,-0.96
2019-03-21T02:23:03.078Z,-0.97
2019-03-21T02:24:02.981Z,-0.96
2019-03-21T02:25:02.999Z,-0.94
2019-03-21T02:26:03.022Z,-0.96
2019-03-21T02:27:02.967Z,-1.04
2019-03-21T02:28:03.023Z,-1
2019-03-21T02:29:03.058Z,-0.95
2019-03-21T02:30:03.063Z,-0.97
2019-03-21T02:31:03.028Z,-0.94
2019-03-21T02:32:03.010Z,-0.95
2019-03-21T02:33:03.009Z,-0.95
2019-03-21T02:34:03.019Z,-0.96
2019-03-21T02:35:03.021Z,-0.94
2019-03-21T02:36:03.062Z,-0.94
2019-03-21T02:37:03.007Z,-0.94
2019-03-21T02:38:02.985Z,-0.9
2019-03-21T02:39:03.017Z,-0.91
2019-03-21T02:40:03.123Z,-0.87
2019-03-21T02:41:02.981Z,-0.89
2019-03-21T02:42:02.988Z,-0.86
2019-03-21T02:43:03.068Z,-0.86
2019-03-21T02:44:03.010Z,-0.85
2019-03-21T02:45:10.162Z,-0.86
2019-03-21T02:46:03.060Z,-0.86
2019-03-21T02:47:02.968Z,-0.85
2019-03-21T02:48:03.060Z,-0.85
2019-03-21T02:49:02.998Z,-0.99
2019-03-21T02:50:02.978Z,-0.98
2019-03-21T02:51:02.954Z,-1
2019-03-21T02:52:02.986Z,-1.05
2019-03-21T02:53:02.987Z,-1
2019-03-21T02:54:03.037Z,-0.96
2019-03-21T02:55:02.966Z,-0.93
2019-03-21T02:56:02.960Z,-0.93
2019-03-21T02:57:03.025Z,-0.93
2019-03-21T02:58:03.006Z,-0.94
2019-03-21T02:59:02.989Z,-0.86
2019-03-21T03:00:03.056Z,-0.83
2019-03-21T03:01:02.935Z,-0.73
2019-03-21T03:02:02.927Z,-0.78
2019-03-21T03:03:02.988Z,-0.78
2019-03-21T03:04:02.969Z,-0.8
2019-03-21T03:05:02.930Z,-0.76
2019-03-21T03:06:02.938Z,-0.82
2019-03-21T03:07:02.971Z,-0.91
2019-03-21T03:08:02.974Z,-0.9
2019-03-21T03:09:03.028Z,-0.95
2019-03-21T03:10:02.937Z,-0.84
2019-03-21T03:11:02.936Z,-0.77
2019-03-21T03:12:02.914Z,-0.77
2019-03-21T03:13:03.846Z,-0.85
2019-03-21T03:14:05.079Z,-0.83
2019-03-21T03:15:02.987Z,-0.89
2019-03-21T03:16:02.980Z,-0.68
2019-03-21T03:17:02.934Z,-0.74
2019-03-21T03:18:02.931Z,-0.78
2019-03-21T03:19:02.967Z,-0.76
2019-03-21T03:20:02.975Z,-0.75
2019-03-21T03:21:02.971Z,-0.85
2019-03-21T03:22:02.996Z,-0.79
2019-03-21T03:23:02.921Z,-0.82
2019-03-21T03:24:02.923Z,-0.84
2019-03-21T03:25:03.085Z,-0.81
2019-03-21T03:26:02.993Z,-0.71
2019-03-21T03:27:03.092Z,-0.75
2019-03-21T03:28:03.838Z,-0.74
2019-03-21T03:29:02.960Z,-0.65
2019-03-21T03:30:03.090Z,-0.68
2019-03-21T03:31:03.125Z,-0.75
2019-03-21T03:32:02.951Z,-0.71
2019-03-21T03:33:03.041Z,-0.7
2019-03-21T03:34:02.949Z,-0.69
2019-03-21T03:35:03.037Z,-0.78
2019-03-21T03:36:03.004Z,-0.71
2019-03-21T03:37:02.918Z,-0.76
2019-03-21T03:38:02.910Z,-0.72
2019-03-21T03:39:02.925Z,-0.71
2019-03-21T03:40:02.928Z,-0.69
2019-03-21T03:41:02.914Z,-0.73
2019-03-21T03:42:09.034Z,-0.7
2019-03-21T03:43:02.913Z,-0.66
2019-03-21T03:44:02.908Z,-0.73
2019-03-21T03:45:02.967Z,-0.72
2019-03-21T03:46:03.071Z,-0.78
2019-03-21T03:47:02.849Z,-0.75
2019-03-21T03:48:02.901Z,-0.8
2019-03-21T03:49:03.755Z,-0.84
2019-03-21T03:50:02.914Z,-0.96
2019-03-21T03:51:02.872Z,-0.87
2019-03-21T03:52:02.875Z,-1
2019-03-21T03:53:02.931Z,-1.11
2019-03-21T03:54:02.964Z,-1.2
2019-03-21T03:55:03.052Z,-1.28
2019-03-21T03:56:02.864Z,-1.31
2019-03-21T03:57:02.911Z,-1.37
2019-03-21T03:58:02.885Z,-1.31
2019-03-21T03:59:02.923Z,-1.32
2019-03-21T04:00:02.919Z,-1.36
2019-03-21T04:01:03.000Z,-1.3
2019-03-21T04:02:02.835Z,-1.36
2019-03-21T04:03:02.938Z,-1.38
2019-03-21T04:04:02.849Z,-1.47
2019-03-21T04:05:02.925Z,-1.31
2019-03-21T04:06:02.849Z,-1.26
2019-03-21T04:07:02.879Z,-1.36
2019-03-21T04:08:02.891Z,-1.45
2019-03-21T04:09:02.869Z,-1.27
2019-03-21T04:10:02.818Z,-1.3
2019-03-21T04:11:02.854Z,-1.31
2019-03-21T04:12:02.838Z,-1.29
2019-03-21T04:13:02.880Z,-1.31
2019-03-21T04:14:02.851Z,-1.36
2019-03-21T04:15:02.857Z,-1.34
2019-03-21T04:16:02.832Z,-1.27
2019-03-21T04:17:02.820Z,-1.2
2019-03-21T04:18:02.851Z,-1.23
2019-03-21T04:19:02.836Z,-1.13
2019-03-21T04:20:02.830Z,-1.2
2019-03-21T04:21:02.876Z,-1.18
2019-03-21T04:22:02.820Z,-1.23
2019-03-21T04:23:02.867Z,-1.1
2019-03-21T04:24:02.820Z,-1.12
2019-03-21T04:25:02.852Z,-1.13
2019-03-21T04:26:02.850Z,-1.15
2019-03-21T04:27:02.820Z,-1.07
2019-03-21T04:28:02.885Z,-1.13
2019-03-21T04:29:02.862Z,-1.1
2019-03-21T04:30:02.816Z,-1.15
2019-03-21T04:31:02.967Z,-1.07
2019-03-21T04:32:02.841Z,-1.05
2019-03-21T04:33:02.870Z,-1.09
2019-03-21T04:34:02.796Z,-1.11
2019-03-21T04:35:02.798Z,-1.11
2019-03-21T04:36:02.803Z,-1.02
2019-03-21T04:37:02.829Z,-1.06
2019-03-21T04:38:02.770Z,-1.07
2019-03-21T04:39:02.799Z,-1.09
2019-03-21T04:40:02.817Z,-1.06
2019-03-21T04:41:02.835Z,-1.08
2019-03-21T04:42:02.841Z,-1.05
2019-03-21T04:43:02.807Z,-1.12
2019-03-21T04:44:03.679Z,-1.13
2019-03-21T04:45:02.783Z,-1.18
2019-03-21T04:46:04.204Z,-1.16
2019-03-21T04:47:02.783Z,-1.19
2019-03-21T04:48:02.811Z,-1.27
2019-03-21T04:49:02.758Z,-1.18
2019-03-21T04:50:02.746Z,-1.19
2019-03-21T04:51:02.783Z,-1.21
2019-03-21T04:52:03.087Z,-1.2
2019-03-21T04:53:02.768Z,-1.21
2019-03-21T04:54:02.758Z,-1.24
2019-03-21T04:55:02.783Z,-1.21
2019-03-21T04:56:02.743Z,-1.25
2019-03-21T04:57:02.754Z,-1.29
2019-03-21T04:58:02.747Z,-1.31
2019-03-21T04:59:02.737Z,-1.32
2019-03-21T05:00:04.282Z,-1.42
2019-03-21T05:01:02.784Z,-1.38
2019-03-21T05:02:02.804Z,-1.48
2019-03-21T05:03:02.764Z,-1.51
2019-03-21T05:04:02.738Z,-1.49
2019-03-21T05:05:02.827Z,-1.53
2019-03-21T05:06:02.803Z,-1.53
2019-03-21T05:07:02.768Z,-1.52
2019-03-21T05:08:02.777Z,-1.56
2019-03-21T05:09:02.770Z,-1.57
2019-03-21T05:10:02.784Z,-1.57
2019-03-21T05:11:03.714Z,-1.65
2019-03-21T05:12:02.739Z,-1.66
2019-03-21T05:13:03.008Z,-1.56
2019-03-21T05:14:02.738Z,-1.56
2019-03-21T05:15:02.775Z,-1.49
2019-03-21T05:16:15.342Z,-1.52
2019-03-21T05:17:02.751Z,-1.57
2019-03-21T05:18:02.735Z,-1.49
2019-03-21T05:19:02.798Z,-1.46
2019-03-21T05:20:02.811Z,-1.48
2019-03-21T05:21:02.749Z,-1.51
2019-03-21T05:22:02.760Z,-1.49
2019-03-21T05:23:02.732Z,-1.54
2019-03-21T05:24:02.715Z,-1.51
2019-03-21T05:25:02.715Z,-1.48
2019-03-21T05:26:04.468Z,-1.48
2019-03-21T05:27:02.715Z,-1.46
2019-03-21T05:28:02.717Z,-1.47
2019-03-21T05:29:02.693Z,-1.51
2019-03-21T05:30:03.595Z,-1.49
2019-03-21T05:31:02.679Z,-1.56
2019-03-21T05:32:04.098Z,-1.45
2019-03-21T05:33:02.776Z,-1.53
2019-03-21T05:34:02.967Z,-1.44
2019-03-21T05:35:02.706Z,-1.53
2019-03-21T05:36:02.694Z,-1.53
2019-03-21T05:37:02.716Z,-1.45
2019-03-21T05:38:02.683Z,-1.47
2019-03-21T05:39:02.744Z,-1.41
2019-03-21T05:40:03.217Z,-1.45
2019-03-21T05:41:02.708Z,-1.45
2019-03-21T05:42:02.697Z,-1.41
2019-03-21T05:43:02.745Z,-1.42
2019-03-21T05:44:02.688Z,-1.42
2019-03-21T05:45:02.668Z,-1.45
2019-03-21T05:46:02.683Z,-1.43
2019-03-21T05:47:02.669Z,-1.44
2019-03-21T05:48:02.707Z,-1.44
2019-03-21T05:49:02.658Z,-1.44
2019-03-21T05:50:02.683Z,-1.44
2019-03-21T05:51:02.707Z,-1.44
2019-03-21T05:52:02.682Z,-1.45
2019-03-21T05:53:02.681Z,-1.41
2019-03-21T05:54:02.729Z,-1.47
2019-03-21T05:55:02.667Z,-1.41
2019-03-21T05:56:02.863Z,-1.43
2019-03-21T05:57:02.900Z,-1.31
2019-03-21T05:58:02.705Z,-1.39
2019-03-21T05:59:02.691Z,-1.35
2019-03-21T06:00:02.653Z,-1.35
2019-03-21T06:01:02.669Z,-1.34
2019-03-21T06:02:02.775Z,-1.35
2019-03-21T06:03:02.635Z,-1.33
2019-03-21T06:04:03.027Z,-1.3
2019-03-21T06:05:02.646Z,-1.3
2019-03-21T06:06:02.685Z,-1.31
2019-03-21T06:07:02.644Z,-1.36
2019-03-21T06:08:02.676Z,-1.39
2019-03-21T06:09:02.703Z,-1.34
2019-03-21T06:10:02.628Z,-1.26
2019-03-21T06:11:02.628Z,-1.22
2019-03-21T06:12:02.676Z,-1.25
2019-03-21T06:13:02.621Z,-1.23
2019-03-21T06:14:02.691Z,-1.22
2019-03-21T06:15:02.698Z,-1.33
2019-03-21T06:16:02.660Z,-1.23
2019-03-21T06:17:02.652Z,-1.22
2019-03-21T06:18:02.740Z,-1.13
2019-03-21T06:19:03.558Z,-1.08
2019-03-21T06:20:04.694Z,-1.08
2019-03-21T06:21:02.669Z,-1.03
2019-03-21T06:22:02.631Z,-1.09
2019-03-21T06:23:02.638Z,-1.11
2019-03-21T06:24:02.668Z,-1.1
2019-03-21T06:25:02.645Z,-1.2
2019-03-21T06:26:02.618Z,-1.19
2019-03-21T06:27:15.217Z,-1.13
2019-03-21T06:28:02.692Z,-1.06
2019-03-21T06:29:02.625Z,-0.99
2019-03-21T06:30:02.693Z,-0.94
2019-03-21T06:31:02.617Z,-0.87
2019-03-21T06:32:02.624Z,-0.89
2019-03-21T06:33:02.612Z,-0.91
2019-03-21T06:34:02.734Z,-0.9
2019-03-21T06:35:02.876Z,-0.75
2019-03-21T06:36:02.614Z,-0.87
2019-03-21T06:37:02.591Z,-0.97
2019-03-21T06:38:02.680Z,-0.98
2019-03-21T06:39:02.641Z,-0.97
2019-03-21T06:40:03.757Z,-0.9
2019-03-21T06:41:02.788Z,-0.95
2019-03-21T06:42:08.917Z,-1
2019-03-21T06:43:05.564Z,-0.96
2019-03-21T06:44:02.587Z,-0.9
2019-03-21T06:45:02.621Z,-0.91
2019-03-21T06:46:02.586Z,-0.93
2019-03-21T06:47:02.621Z,-0.95
2019-03-21T06:48:02.656Z,-0.92
2019-03-21T06:49:03.524Z,-0.94
2019-03-21T06:50:02.626Z,-0.95
2019-03-21T06:51:02.598Z,-0.96
2019-03-21T06:52:02.616Z,-0.98
2019-03-21T06:53:03.619Z,-0.97
2019-03-21T06:54:02.591Z,-0.85
2019-03-21T06:55:02.614Z,-0.92
2019-03-21T06:56:02.639Z,-0.91
2019-03-21T06:57:03.075Z,-0.93
2019-03-21T06:58:02.649Z,-0.85
2019-03-21T06:59:02.598Z,-0.78
2019-03-21T07:00:02.585Z,-0.77
2019-03-21T07:01:02.834Z,-0.68
2019-03-21T07:02:02.616Z,-0.72
2019-03-21T07:03:02.608Z,-0.65
2019-03-21T07:04:07.890Z,-0.7
2019-03-21T07:05:02.588Z,-0.67
2019-03-21T07:06:02.548Z,-0.62
2019-03-21T07:07:08.900Z,-0.61
2019-03-21T07:08:02.637Z,-0.66
2019-03-21T07:09:02.562Z,-0.6
2019-03-21T07:10:02.636Z,-0.51
2019-03-21T07:11:02.557Z,-0.47
2019-03-21T07:12:02.689Z,-0.54
2019-03-21T07:13:02.587Z,-0.6
2019-03-21T07:14:02.609Z,-0.49
2019-03-21T07:15:04.775Z,-0.47
2019-03-21T07:16:02.619Z,-0.54
2019-03-21T07:17:02.574Z,-0.56
2019-03-21T07:18:02.545Z,-0.51
2019-03-21T07:19:02.546Z,-0.49
2019-03-21T07:20:02.607Z,-0.43
2019-03-21T07:21:02.550Z,-0.44
2019-03-21T07:22:02.594Z,-0.41
2019-03-21T07:23:02.764Z,-0.35
2019-03-21T07:24:02.588Z,-0.34
2019-03-21T07:25:02.539Z,-0.36
2019-03-21T07:26:02.536Z,-0.27
2019-03-21T07:27:02.622Z,-0.3
2019-03-21T07:28:02.542Z,-0.37
2019-03-21T07:29:02.533Z,-0.43
2019-03-21T07:30:02.587Z,-0.38
2019-03-21T07:31:02.570Z,-0.35
2019-03-21T07:32:02.560Z,-0.37
2019-03-21T07:33:02.515Z,-0.3
2019-03-21T07:34:02.497Z,-0.37
2019-03-21T07:35:02.509Z,-0.27
2019-03-21T07:36:02.524Z,-0.29
2019-03-21T07:37:02.594Z,-0.19
2019-03-21T07:38:02.512Z,-0.25
2019-03-21T07:39:02.508Z,-0.34
2019-03-21T07:40:02.536Z,-0.27
2019-03-21T07:41:02.508Z,-0.25
2019-03-21T07:42:02.546Z,-0.2
2019-03-21T07:43:02.518Z,-0.3
2019-03-21T07:44:02.531Z,-0.22
2019-03-21T07:45:02.531Z,-0.17
2019-03-21T07:46:02.489Z,-0.11
2019-03-21T07:47:13.726Z,-0.02
2019-03-21T07:48:05.625Z,-0.05
2019-03-21T07:49:02.505Z,-0.03
2019-03-21T07:50:02.500Z,0.03
2019-03-21T07:51:02.562Z,-0.18
2019-03-21T07:52:02.587Z,-0.14
2019-03-21T07:53:02.519Z,-0.06
2019-03-21T07:54:02.555Z,-0.05
2019-03-21T07:55:02.517Z,-0.02
2019-03-21T07:56:02.499Z,-0.19
2019-03-21T07:57:02.585Z,-0.19
2019-03-21T07:58:02.476Z,-0.06
2019-03-21T07:59:03.406Z,-0.06
2019-03-21T08:00:02.486Z,-0.05
2019-03-21T08:01:03.360Z,-0.09
2019-03-21T08:02:02.467Z,-0.03
2019-03-21T08:03:02.542Z,0.05
2019-03-21T08:04:03.800Z,0.19
2019-03-21T08:05:03.729Z,0.05
2019-03-21T08:06:02.853Z,0.08
2019-03-21T08:07:02.549Z,0.08
2019-03-21T08:08:02.519Z,-0.01
2019-03-21T08:09:02.467Z,-0.1
2019-03-21T08:10:02.462Z,-0.04
2019-03-21T08:11:02.467Z,-0.09
2019-03-21T08:12:02.465Z,0.04
2019-03-21T08:13:03.345Z,0.16
2019-03-21T08:14:03.532Z,0.17
2019-03-21T08:15:03.575Z,0.16
2019-03-21T08:16:02.453Z,0.18
2019-03-21T08:17:08.880Z,0.24
2019-03-21T08:18:02.465Z,0.28
2019-03-21T08:19:03.019Z,0.23
2019-03-21T08:20:02.456Z,0.16
2019-03-21T08:21:02.466Z,0.18
2019-03-21T08:22:02.485Z,0.19
2019-03-21T08:23:02.480Z,0.14
2019-03-21T08:24:02.611Z,0.14
2019-03-21T08:25:02.430Z,0.19
2019-03-21T08:26:02.499Z,0.21
2019-03-21T08:27:02.444Z,0.27
2019-03-21T08:28:02.535Z,0.11
2019-03-21T08:29:02.473Z,0.06
2019-03-21T08:30:02.425Z,0.02
2019-03-21T08:31:02.446Z,0.13
2019-03-21T08:32:03.330Z,0.15
2019-03-21T08:33:03.503Z,-0.05
2019-03-21T08:34:02.535Z,0.09
2019-03-21T08:35:04.716Z,0.04
2019-03-21T08:36:02.443Z,0.01
2019-03-21T08:37:02.467Z,0.06
2019-03-21T08:38:02.463Z,0.24
2019-03-21T08:39:02.439Z,0.24
2019-03-21T08:40:02.422Z,0.22
2019-03-21T08:41:02.402Z,0.38
2019-03-21T08:42:02.425Z,0.36
2019-03-21T08:43:02.469Z,0.37
2019-03-21T08:44:02.510Z,0.52
2019-03-21T08:45:02.401Z,0.44
2019-03-21T08:46:02.407Z,0.43
2019-03-21T08:47:02.443Z,0.39
2019-03-21T08:48:02.407Z,0.59
2019-03-21T08:49:02.407Z,0.5
2019-03-21T08:50:02.441Z,0.61
2019-03-21T08:51:09.098Z,0.7
2019-03-21T08:52:02.457Z,0.86
2019-03-21T08:53:02.410Z,0.74
2019-03-21T08:54:02.437Z,0.83
2019-03-21T08:55:02.425Z,0.76
2019-03-21T08:56:02.427Z,0.89
2019-03-21T08:57:02.500Z,0.6
2019-03-21T08:58:02.390Z,0.68
2019-03-21T08:59:02.393Z,0.79
2019-03-21T09:00:02.459Z,0.54
2019-03-21T09:01:02.380Z,0.58
2019-03-21T09:02:02.430Z,0.24
2019-03-21T09:03:02.380Z,0.63
2019-03-21T09:04:02.376Z,0.61
2019-03-21T09:05:02.466Z,0.41
2019-03-21T09:06:02.373Z,0.38
2019-03-21T09:07:02.405Z,0.33
2019-03-21T09:08:02.399Z,0.34
2019-03-21T09:09:02.449Z,0.26
2019-03-21T09:10:02.478Z,0.28
2019-03-21T09:11:02.364Z,0.11
2019-03-21T09:12:02.409Z,0.2
2019-03-21T09:13:02.409Z,0.19
2019-03-21T09:14:02.368Z,0.34
2019-03-21T09:15:02.377Z,0.13
2019-03-21T09:16:02.380Z,0.19
2019-03-21T09:17:02.395Z,0.15
2019-03-21T09:18:02.394Z,0.32
2019-03-21T09:19:02.480Z,0.22
2019-03-21T09:20:02.417Z,0.27
2019-03-21T09:21:02.817Z,0.23
2019-03-21T09:22:02.425Z,0.33
2019-03-21T09:23:02.459Z,0.19
2019-03-21T09:24:02.355Z,0.28
2019-03-21T09:25:05.131Z,0.15
2019-03-21T09:26:02.429Z,0.33
2019-03-21T09:27:02.514Z,0.28
2019-03-21T09:28:03.390Z,0.32
2019-03-21T09:29:02.380Z,0.03
2019-03-21T09:30:02.391Z,0.05
2019-03-21T09:31:02.372Z,0.01
2019-03-21T09:32:02.411Z,0.26
2019-03-21T09:33:02.367Z,0.24
2019-03-21T09:34:02.340Z,0.29
2019-03-21T09:35:02.404Z,0.38
2019-03-21T09:36:02.625Z,0.05
2019-03-21T09:37:04.523Z,0.5
2019-03-21T09:38:02.754Z,0.53
2019-03-21T09:39:02.328Z,0.51
2019-03-21T09:40:02.470Z,0.48
2019-03-21T09:41:02.347Z,0.2
2019-03-21T09:42:02.490Z,0.42
2019-03-21T09:43:03.583Z,0.08
2019-03-21T09:44:02.343Z,0.36
2019-03-21T09:45:02.316Z,0.37
2019-03-21T09:46:03.290Z,-0.23
2019-03-21T09:47:02.354Z,0.32
2019-03-21T09:48:02.365Z,-0.14
2019-03-21T09:49:02.348Z,0.16
2019-03-21T09:50:02.328Z,0.23
2019-03-21T09:51:03.224Z,0.29
2019-03-21T09:52:02.306Z,-0.02
2019-03-21T09:53:02.319Z,-0.02
2019-03-21T09:54:10.216Z,0.11
2019-03-21T09:55:02.361Z,0.42
2019-03-21T09:56:02.349Z,0.43
2019-03-21T09:57:02.971Z,0.21
2019-03-21T09:58:02.659Z,-0.15
2019-03-21T09:59:02.407Z,0.11
2019-03-21T10:00:02.391Z,0.27
2019-03-21T10:01:02.436Z,0.13
2019-03-21T10:02:02.318Z,0.21
2019-03-21T10:03:02.410Z,0.29
2019-03-21T10:04:02.349Z,0.32
2019-03-21T10:05:02.410Z,0.21
2019-03-21T10:06:02.320Z,0.03
2019-03-21T10:07:02.370Z,-0.11
2019-03-21T10:08:02.327Z,0.14
2019-03-21T10:09:02.273Z,0.38
2019-03-21T10:10:02.306Z,0.18
2019-03-21T10:11:02.402Z,0.04
2019-03-21T10:12:02.312Z,0.06
2019-03-21T10:13:02.281Z,0.09
2019-03-21T10:14:02.297Z,-0.03
2019-03-21T10:15:02.292Z,-0.23
2019-03-21T10:16:02.284Z,-0.17
2019-03-21T10:17:02.302Z,0.1
2019-03-21T10:18:02.306Z,0.29
2019-03-21T10:19:02.457Z,0.36
2019-03-21T10:20:02.286Z,0.19
2019-03-21T10:21:02.288Z,0.18
2019-03-21T10:22:02.294Z,0.47
2019-03-21T10:23:02.313Z,0.31
2019-03-21T10:24:02.334Z,0.21
2019-03-21T10:25:02.306Z,0.1
2019-03-21T10:26:02.264Z,0.38
2019-03-21T10:27:02.262Z,-0.09
2019-03-21T10:28:02.344Z,-0.22
2019-03-21T10:29:02.343Z,-0.25
2019-03-21T10:30:02.271Z,0.1
2019-03-21T10:31:02.274Z,0.13
2019-03-21T10:32:14.922Z,0.22
2019-03-21T10:33:02.281Z,-0.07
2019-03-21T10:34:02.262Z,0.13
2019-03-21T10:35:02.278Z,-0.1
2019-03-21T10:36:02.265Z,0.01
2019-03-21T10:37:02.299Z,0.17
2019-03-21T10:38:02.265Z,0.4
2019-03-21T10:39:02.294Z,-0.03
2019-03-21T10:40:02.310Z,0.31
2019-03-21T10:41:02.281Z,0.28
2019-03-21T10:42:02.268Z,0.04
2019-03-21T10:43:02.258Z,0.05
2019-03-21T10:44:02.234Z,-0.03
2019-03-21T10:45:02.323Z,0.02
2019-03-21T10:46:02.304Z,0.23
2019-03-21T10:47:02.355Z,-0.04
2019-03-21T10:48:02.231Z,0.17
2019-03-21T10:49:02.284Z,0.17
2019-03-21T10:50:02.282Z,0.27
2019-03-21T10:51:02.300Z,0.24
2019-03-21T10:52:02.264Z,0.47
2019-03-21T10:53:02.287Z,0.48
2019-03-21T10:54:02.248Z,0.64
2019-03-21T10:55:02.233Z,0.45
2019-03-21T10:56:02.258Z,0.61
2019-03-21T10:57:02.258Z,0.29
2019-03-21T10:58:02.224Z,0.06
2019-03-21T10:59:02.223Z,0.02
2019-03-21T11:00:02.728Z,0.09
2019-03-21T11:01:02.228Z,0.45
2019-03-21T11:01:15.910Z,0.29
2019-03-21T11:02:15.866Z,0.68
2019-03-21T11:03:15.916Z,0.66
2019-03-21T11:04:15.870Z,0.57
2019-03-21T11:05:15.864Z,0.27
2019-03-21T11:06:15.838Z,0.33
2019-03-21T11:07:15.845Z,0.41
2019-03-21T11:08:15.804Z,0.2
2019-03-21T11:09:15.829Z,0.67
2019-03-21T11:10:15.818Z,0.29
2019-03-21T11:11:15.829Z,0.24
2019-03-21T11:12:15.800Z,-0.46
2019-03-21T11:13:15.846Z,-0.35
2019-03-21T11:14:15.825Z,-0.33
2019-03-21T11:15:15.849Z,-0.43
2019-03-21T11:16:15.833Z,-0.18
2019-03-21T11:17:15.840Z,-0.37
2019-03-21T11:18:15.805Z,-0.3
2019-03-21T11:19:15.918Z,-0.29
2019-03-21T11:20:15.871Z,-0.23
2019-03-21T11:21:15.800Z,0.02
2019-03-21T11:22:15.832Z,0.24
2019-03-21T11:23:15.968Z,0.22
2019-03-21T11:24:15.993Z,0.15
2019-03-21T11:25:15.853Z,-0.22
2019-03-21T11:26:15.956Z,0.03
2019-03-21T11:27:15.908Z,0.2
2019-03-21T11:28:18.060Z,0.27
2019-03-21T11:29:15.854Z,0.07
2019-03-21T11:30:16.639Z,0.1
2019-03-21T11:31:15.808Z,0.28
2019-03-21T11:32:15.832Z,0.12
2019-03-21T11:33:15.853Z,-0.09
2019-03-21T11:34:15.786Z,-0.11
2019-03-21T11:35:15.803Z,-0.08
2019-03-21T11:36:15.811Z,0.23
2019-03-21T11:37:15.786Z,0.12
2019-03-21T11:38:15.885Z,0.11
2019-03-21T11:39:15.774Z,0.06
2019-03-21T11:40:15.847Z,0.36
2019-03-21T11:41:15.815Z,0.17
2019-03-21T11:42:15.838Z,-0.42
2019-03-21T11:43:15.893Z,-0.05
2019-03-21T11:44:15.870Z,0.15
2019-03-21T11:45:15.865Z,0.39
2019-03-21T11:46:16.090Z,-0.25
2019-03-21T11:47:15.819Z,-0.14
2019-03-21T11:48:15.859Z,-0.27
2019-03-21T11:49:15.829Z,-0.19
2019-03-21T11:50:15.872Z,-0.04
2019-03-21T11:51:15.842Z,-0.01
2019-03-21T11:52:19.140Z,-0.17
2019-03-21T11:53:15.892Z,-0.23
2019-03-21T11:54:15.767Z,-0.31
2019-03-21T11:55:15.803Z,-0.06
2019-03-21T11:56:15.778Z,0.07
2019-03-21T11:57:15.771Z,0.01
2019-03-21T11:58:18.093Z,-0.39
2019-03-21T11:59:15.785Z,-0.52
2019-03-21T12:00:15.770Z,-0.74
2019-03-21T12:01:16.951Z,-0.77
2019-03-21T12:02:27.744Z,-0.91
2019-03-21T12:03:15.871Z,-0.89
2019-03-21T12:04:15.798Z,-0.74
2019-03-21T12:05:15.786Z,-0.53
2019-03-21T12:06:15.762Z,-0.33
2019-03-21T12:07:15.746Z,-0.43
2019-03-21T12:08:15.990Z,-0.16
2019-03-21T12:09:15.784Z,-0.21
2019-03-21T12:10:15.747Z,-0.52
2019-03-21T12:11:15.743Z,-0.38
2019-03-21T12:12:15.752Z,-0.28
2019-03-21T12:13:15.733Z,-0.64
2019-03-21T12:14:15.814Z,-0.05
2019-03-21T12:15:15.821Z,-0.17
2019-03-21T12:16:15.858Z,-0.66
2019-03-21T12:17:15.727Z,-0.66
2019-03-21T12:18:15.774Z,-0.54
2019-03-21T12:19:15.771Z,-0.39
2019-03-21T12:20:15.735Z,-0.42
2019-03-21T12:21:15.717Z,-0.33
2019-03-21T12:22:15.712Z,-0.39
2019-03-21T12:23:15.735Z,-0.83
2019-03-21T12:24:15.782Z,-0.76
2019-03-21T12:25:15.700Z,-0.76
2019-03-21T12:26:15.752Z,-0.63
2019-03-21T12:27:15.739Z,-0.5
2019-03-21T12:28:15.733Z,-0.05
2019-03-21T12:29:15.710Z,-0.14
2019-03-21T12:30:15.742Z,-0.9
2019-03-21T12:31:15.738Z,-0.1
2019-03-21T12:32:15.706Z,0.02
2019-03-21T12:33:15.760Z,0.15
2019-03-21T12:34:15.703Z,-0.63
2019-03-21T12:35:15.721Z,-0.44
2019-03-21T12:36:15.737Z,-0.34
2019-03-21T12:37:17.179Z,-0.31
2019-03-21T12:38:15.722Z,0.05
2019-03-21T12:39:15.723Z,0.49
2019-03-21T12:40:15.677Z,0.77
2019-03-21T12:41:15.751Z,0.15
2019-03-21T12:42:15.686Z,-0.09
2019-03-21T12:43:15.724Z,-0.07
2019-03-21T12:44:15.743Z,0.23
2019-03-21T12:45:15.749Z,-0.34
2019-03-21T12:46:15.827Z,-0.11
2019-03-21T12:47:15.722Z,0.1
2019-03-21T12:48:15.683Z,-0.08
2019-03-21T12:49:15.722Z,-0.12
2019-03-21T12:50:15.719Z,-0.49
2019-03-21T12:51:15.708Z,-0.08
2019-03-21T12:52:15.764Z,0.36
2019-03-21T12:53:15.721Z,0.24
2019-03-21T12:54:15.722Z,0.56
2019-03-21T12:55:15.662Z,0.75
2019-03-21T12:56:15.771Z,0.69
2019-03-21T12:57:15.698Z,-0.12
2019-03-21T12:58:15.677Z,0.71
2019-03-21T12:59:15.679Z,0.58
2019-03-21T13:00:15.690Z,0.81
2019-03-21T13:01:15.676Z,0.42